MMU weather

Public forecast

Using degrees Fahrenheit for public forecast. Weather courtesy of forecast.io.

Current aviation weather report (METAR) for Morristown Municipal Airport

Retrieved 2020/08/09 13:45 UTC (38 minutes ago):

KMMU 091345Z 00000KT 10SM SKC 28/24 A3013

Closest aviation forecast (TAF) to Morristown Municipal Airport

Closest forecast is Newark Liberty International Airport, 12.9 nm (23.9 km) ESE. Retrieved 2020/08/09 12:36 UTC (2 hours ago):

TAF KEWR 091132Z 0912/1018 24005KT P6SM SCT006 SCT012 SCT250 FM091400 22007KT P6SM SCT060 SCT250 FM091900 21010KT P6SM SCT060 TEMPO 0919/0923 15007KT FM100100 21007KT P6SM FEW050 FM100900 23006KT P6SM FEW050